sensor_id;sensor_type;location;lat;lon;timestamp;P1;durP1;ratioP1;P2;durP2;ratioP2
83018;SDS011;72834;40.104;18.336;2024-01-06T00:00:44;11.65;;;3.58;;
83018;SDS011;72834;40.104;18.336;2024-01-06T00:03:11;14.30;;;3.45;;
83018;SDS011;72834;40.104;18.336;2024-01-06T00:05:37;13.63;;;3.45;;
83018;SDS011;72834;40.104;18.336;2024-01-06T00:08:04;11.85;;;2.80;;
83018;SDS011;72834;40.104;18.336;2024-01-06T00:10:31;15.88;;;2.92;;
83018;SDS011;72834;40.104;18.336;2024-01-06T00:12:58;12.98;;;3.50;;
83018;SDS011;72834;40.104;18.336;2024-01-06T00:15:24;12.43;;;3.45;;
83018;SDS011;72834;40.104;18.336;2024-01-06T00:17:50;10.93;;;2.78;;
83018;SDS011;72834;40.104;18.336;2024-01-06T00:20:16;12.18;;;4.07;;
83018;SDS011;72834;40.104;18.336;2024-01-06T00:22:43;9.70;;;4.03;;
83018;SDS011;72834;40.104;18.336;2024-01-06T00:25:10;11.43;;;3.63;;
83018;SDS011;72834;40.104;18.336;2024-01-06T00:27:36;11.60;;;3.70;;
83018;SDS011;72834;40.104;18.336;2024-01-06T00:30:02;10.68;;;2.80;;
83018;SDS011;72834;40.104;18.336;2024-01-06T00:32:29;14.65;;;3.60;;
83018;SDS011;72834;40.104;18.336;2024-01-06T00:34:55;10.05;;;3.95;;
83018;SDS011;72834;40.104;18.336;2024-01-06T00:37:21;17.42;;;4.03;;
83018;SDS011;72834;40.104;18.336;2024-01-06T00:39:47;23.27;;;4.35;;
83018;SDS011;72834;40.104;18.336;2024-01-06T00:42:14;17.15;;;3.85;;
83018;SDS011;72834;40.104;18.336;2024-01-06T00:44:40;12.75;;;3.17;;
83018;SDS011;72834;40.104;18.336;2024-01-06T00:47:06;18.77;;;4.40;;
83018;SDS011;72834;40.104;18.336;2024-01-06T00:49:32;9.05;;;3.15;;
83018;SDS011;72834;40.104;18.336;2024-01-06T00:51:59;11.57;;;3.45;;
83018;SDS011;72834;40.104;18.336;2024-01-06T00:54:25;11.77;;;2.80;;
83018;SDS011;72834;40.104;18.336;2024-01-06T00:56:51;9.13;;;3.63;;
83018;SDS011;72834;40.104;18.336;2024-01-06T00:59:17;11.43;;;4.03;;
83018;SDS011;72834;40.104;18.336;2024-01-06T01:01:44;12.70;;;3.50;;
83018;SDS011;72834;40.104;18.336;2024-01-06T01:04:10;16.88;;;3.13;;
83018;SDS011;72834;40.104;18.336;2024-01-06T01:06:36;13.02;;;3.53;;
83018;SDS011;72834;40.104;18.336;2024-01-06T01:09:03;13.43;;;3.33;;
83018;SDS011;72834;40.104;18.336;2024-01-06T01:11:30;12.55;;;3.28;;
83018;SDS011;72834;40.104;18.336;2024-01-06T01:13:56;11.20;;;2.90;;
83018;SDS011;72834;40.104;18.336;2024-01-06T01:16:22;16.30;;;3.35;;
83018;SDS011;72834;40.104;18.336;2024-01-06T01:18:49;12.27;;;3.08;;
83018;SDS011;72834;40.104;18.336;2024-01-06T01:21:15;10.20;;;2.80;;
83018;SDS011;72834;40.104;18.336;2024-01-06T01:23:41;14.30;;;3.28;;
83018;SDS011;72834;40.104;18.336;2024-01-06T01:26:08;11.98;;;3.20;;
83018;SDS011;72834;40.104;18.336;2024-01-06T01:28:34;14.60;;;3.83;;
83018;SDS011;72834;40.104;18.336;2024-01-06T01:31:01;7.82;;;2.70;;
83018;SDS011;72834;40.104;18.336;2024-01-06T01:33:27;15.43;;;3.10;;
83018;SDS011;72834;40.104;18.336;2024-01-06T01:35:53;9.48;;;2.53;;
83018;SDS011;72834;40.104;18.336;2024-01-06T01:38:19;12.80;;;3.35;;
83018;SDS011;72834;40.104;18.336;2024-01-06T01:40:46;8.18;;;2.63;;
83018;SDS011;72834;40.104;18.336;2024-01-06T01:43:18;12.20;;;2.67;;
83018;SDS011;72834;40.104;18.336;2024-01-06T01:45:45;10.15;;;2.90;;
83018;SDS011;72834;40.104;18.336;2024-01-06T01:48:15;11.00;;;3.08;;
83018;SDS011;72834;40.104;18.336;2024-01-06T01:50:42;7.75;;;2.85;;
83018;SDS011;72834;40.104;18.336;2024-01-06T01:53:08;9.27;;;3.30;;
83018;SDS011;72834;40.104;18.336;2024-01-06T01:55:35;11.10;;;3.47;;
83018;SDS011;72834;40.104;18.336;2024-01-06T01:58:01;10.85;;;2.13;;
83018;SDS011;72834;40.104;18.336;2024-01-06T02:03:25;16.58;;;3.72;;
83018;SDS011;72834;40.104;18.336;2024-01-06T02:05:52;12.73;;;3.20;;
83018;SDS011;72834;40.104;18.336;2024-01-06T02:08:19;9.48;;;2.95;;
83018;SDS011;72834;40.104;18.336;2024-01-06T02:10:46;13.55;;;3.47;;
83018;SDS011;72834;40.104;18.336;2024-01-06T02:13:12;13.52;;;4.03;;
83018;SDS011;72834;40.104;18.336;2024-01-06T02:15:38;9.85;;;4.15;;
83018;SDS011;72834;40.104;18.336;2024-01-06T02:18:05;13.98;;;3.45;;
83018;SDS011;72834;40.104;18.336;2024-01-06T02:20:32;11.15;;;2.78;;
83018;SDS011;72834;40.104;18.336;2024-01-06T02:22:58;10.48;;;2.85;;
83018;SDS011;72834;40.104;18.336;2024-01-06T02:25:26;11.00;;;2.90;;
83018;SDS011;72834;40.104;18.336;2024-01-06T02:27:52;12.57;;;3.58;;
83018;SDS011;72834;40.104;18.336;2024-01-06T02:30:19;9.82;;;2.63;;
83018;SDS011;72834;40.104;18.336;2024-01-06T02:32:45;22.67;;;4.47;;
83018;SDS011;72834;40.104;18.336;2024-01-06T02:35:11;16.70;;;3.72;;
83018;SDS011;72834;40.104;18.336;2024-01-06T02:37:37;11.02;;;2.47;;
83018;SDS011;72834;40.104;18.336;2024-01-06T02:40:04;11.68;;;2.95;;
83018;SDS011;72834;40.104;18.336;2024-01-06T02:42:30;11.32;;;2.50;;
83018;SDS011;72834;40.104;18.336;2024-01-06T02:44:57;9.60;;;2.92;;
83018;SDS011;72834;40.104;18.336;2024-01-06T02:47:23;12.95;;;2.65;;
83018;SDS011;72834;40.104;18.336;2024-01-06T02:49:49;21.30;;;3.50;;
83018;SDS011;72834;40.104;18.336;2024-01-06T02:52:15;11.00;;;2.70;;
83018;SDS011;72834;40.104;18.336;2024-01-06T02:54:42;8.82;;;3.35;;
83018;SDS011;72834;40.104;18.336;2024-01-06T02:57:08;13.18;;;3.50;;
83018;SDS011;72834;40.104;18.336;2024-01-06T02:59:34;18.05;;;3.03;;
83018;SDS011;72834;40.104;18.336;2024-01-06T03:02:01;13.20;;;3.28;;
83018;SDS011;72834;40.104;18.336;2024-01-06T03:04:28;18.70;;;3.60;;
83018;SDS011;72834;40.104;18.336;2024-01-06T03:06:54;12.25;;;2.65;;
83018;SDS011;72834;40.104;18.336;2024-01-06T03:09:20;15.15;;;3.05;;
83018;SDS011;72834;40.104;18.336;2024-01-06T03:11:47;15.27;;;3.45;;
83018;SDS011;72834;40.104;18.336;2024-01-06T03:14:13;13.65;;;3.03;;
83018;SDS011;72834;40.104;18.336;2024-01-06T03:16:39;12.02;;;3.33;;
83018;SDS011;72834;40.104;18.336;2024-01-06T03:19:05;17.10;;;3.70;;
83018;SDS011;72834;40.104;18.336;2024-01-06T03:21:32;9.40;;;3.78;;
83018;SDS011;72834;40.104;18.336;2024-01-06T03:23:58;15.98;;;3.03;;
83018;SDS011;72834;40.104;18.336;2024-01-06T03:26:25;17.95;;;3.85;;
83018;SDS011;72834;40.104;18.336;2024-01-06T03:28:52;14.60;;;2.97;;
83018;SDS011;72834;40.104;18.336;2024-01-06T03:31:20;19.50;;;3.38;;
83018;SDS011;72834;40.104;18.336;2024-01-06T03:33:47;10.43;;;2.53;;
83018;SDS011;72834;40.104;18.336;2024-01-06T03:36:14;18.05;;;2.58;;
83018;SDS011;72834;40.104;18.336;2024-01-06T03:38:42;13.10;;;3.00;;
83018;SDS011;72834;40.104;18.336;2024-01-06T03:41:08;17.30;;;3.83;;
83018;SDS011;72834;40.104;18.336;2024-01-06T03:43:34;15.65;;;3.20;;
83018;SDS011;72834;40.104;18.336;2024-01-06T03:46:01;10.80;;;2.78;;
83018;SDS011;72834;40.104;18.336;2024-01-06T03:48:27;12.30;;;3.15;;
83018;SDS011;72834;40.104;18.336;2024-01-06T03:50:53;21.25;;;3.38;;
83018;SDS011;72834;40.104;18.336;2024-01-06T03:53:20;13.93;;;3.70;;
83018;SDS011;72834;40.104;18.336;2024-01-06T03:55:46;14.10;;;3.63;;
83018;SDS011;72834;40.104;18.336;2024-01-06T03:58:12;18.52;;;3.78;;
83018;SDS011;72834;40.104;18.336;2024-01-06T04:00:38;13.85;;;3.42;;
83018;SDS011;72834;40.104;18.336;2024-01-06T04:03:04;13.05;;;3.20;;
83018;SDS011;72834;40.104;18.336;2024-01-06T04:05:32;12.63;;;2.70;;
83018;SDS011;72834;40.104;18.336;2024-01-06T04:07:58;19.73;;;3.38;;
83018;SDS011;72834;40.104;18.336;2024-01-06T04:10:24;18.83;;;3.60;;
83018;SDS011;72834;40.104;18.336;2024-01-06T04:12:51;12.60;;;2.88;;
83018;SDS011;72834;40.104;18.336;2024-01-06T04:15:17;18.33;;;3.08;;
83018;SDS011;72834;40.104;18.336;2024-01-06T04:17:44;13.00;;;2.80;;
83018;SDS011;72834;40.104;18.336;2024-01-06T04:20:14;25.90;;;3.97;;
83018;SDS011;72834;40.104;18.336;2024-01-06T04:22:40;15.35;;;2.83;;
83018;SDS011;72834;40.104;18.336;2024-01-06T04:25:06;14.77;;;3.03;;
83018;SDS011;72834;40.104;18.336;2024-01-06T04:27:33;13.57;;;3.42;;
83018;SDS011;72834;40.104;18.336;2024-01-06T04:30:00;14.68;;;3.60;;
83018;SDS011;72834;40.104;18.336;2024-01-06T04:32:27;19.55;;;4.05;;
83018;SDS011;72834;40.104;18.336;2024-01-06T04:34:53;21.23;;;4.20;;
83018;SDS011;72834;40.104;18.336;2024-01-06T04:37:20;21.17;;;4.22;;
83018;SDS011;72834;40.104;18.336;2024-01-06T04:39:46;20.80;;;3.10;;
83018;SDS011;72834;40.104;18.336;2024-01-06T04:42:12;15.23;;;2.78;;
83018;SDS011;72834;40.104;18.336;2024-01-06T04:44:39;10.70;;;2.78;;
83018;SDS011;72834;40.104;18.336;2024-01-06T04:47:05;15.07;;;3.40;;
83018;SDS011;72834;40.104;18.336;2024-01-06T04:49:32;10.48;;;2.92;;
83018;SDS011;72834;40.104;18.336;2024-01-06T04:51:58;14.63;;;2.88;;
83018;SDS011;72834;40.104;18.336;2024-01-06T04:54:24;22.23;;;5.30;;
83018;SDS011;72834;40.104;18.336;2024-01-06T04:56:50;13.13;;;3.55;;
83018;SDS011;72834;40.104;18.336;2024-01-06T04:59:17;19.67;;;3.65;;
83018;SDS011;72834;40.104;18.336;2024-01-06T05:01:43;10.10;;;2.92;;
83018;SDS011;72834;40.104;18.336;2024-01-06T05:04:10;22.48;;;4.57;;
83018;SDS011;72834;40.104;18.336;2024-01-06T05:06:36;14.32;;;3.08;;
83018;SDS011;72834;40.104;18.336;2024-01-06T05:09:02;11.60;;;3.40;;
83018;SDS011;72834;40.104;18.336;2024-01-06T05:11:29;19.90;;;3.28;;
83018;SDS011;72834;40.104;18.336;2024-01-06T05:13:55;12.40;;;3.45;;
83018;SDS011;72834;40.104;18.336;2024-01-06T05:16:21;15.02;;;2.92;;
83018;SDS011;72834;40.104;18.336;2024-01-06T05:18:47;12.57;;;3.28;;
83018;SDS011;72834;40.104;18.336;2024-01-06T05:21:14;14.55;;;3.03;;
83018;SDS011;72834;40.104;18.336;2024-01-06T05:23:40;15.23;;;4.45;;
83018;SDS011;72834;40.104;18.336;2024-01-06T05:26:06;18.80;;;3.75;;
83018;SDS011;72834;40.104;18.336;2024-01-06T05:28:32;14.20;;;3.42;;
83018;SDS011;72834;40.104;18.336;2024-01-06T05:30:59;14.05;;;3.42;;
83018;SDS011;72834;40.104;18.336;2024-01-06T05:33:25;15.70;;;4.40;;
83018;SDS011;72834;40.104;18.336;2024-01-06T05:35:51;15.75;;;3.40;;
83018;SDS011;72834;40.104;18.336;2024-01-06T05:38:17;12.27;;;4.25;;
83018;SDS011;72834;40.104;18.336;2024-01-06T05:40:43;20.63;;;4.85;;
83018;SDS011;72834;40.104;18.336;2024-01-06T05:43:10;15.73;;;3.25;;
83018;SDS011;72834;40.104;18.336;2024-01-06T05:45:36;13.10;;;3.03;;
83018;SDS011;72834;40.104;18.336;2024-01-06T05:48:04;12.65;;;3.47;;
83018;SDS011;72834;40.104;18.336;2024-01-06T05:50:34;23.27;;;3.40;;
83018;SDS011;72834;40.104;18.336;2024-01-06T05:53:00;22.45;;;4.55;;
83018;SDS011;72834;40.104;18.336;2024-01-06T05:55:26;19.02;;;2.95;;
83018;SDS011;72834;40.104;18.336;2024-01-06T05:57:53;14.40;;;3.30;;
83018;SDS011;72834;40.104;18.336;2024-01-06T06:00:19;18.30;;;2.83;;
83018;SDS011;72834;40.104;18.336;2024-01-06T06:02:45;21.05;;;3.40;;
83018;SDS011;72834;40.104;18.336;2024-01-06T06:05:11;14.63;;;3.42;;
83018;SDS011;72834;40.104;18.336;2024-01-06T06:07:39;23.92;;;3.13;;
83018;SDS011;72834;40.104;18.336;2024-01-06T06:10:08;17.42;;;3.75;;
83018;SDS011;72834;40.104;18.336;2024-01-06T06:12:36;13.05;;;2.72;;
83018;SDS011;72834;40.104;18.336;2024-01-06T06:15:03;11.75;;;3.92;;
83018;SDS011;72834;40.104;18.336;2024-01-06T06:17:32;21.05;;;4.32;;
83018;SDS011;72834;40.104;18.336;2024-01-06T06:19:58;15.85;;;3.40;;
83018;SDS011;72834;40.104;18.336;2024-01-06T06:22:25;16.05;;;3.67;;
83018;SDS011;72834;40.104;18.336;2024-01-06T06:24:56;23.52;;;4.45;;
83018;SDS011;72834;40.104;18.336;2024-01-06T06:27:23;18.33;;;4.35;;
83018;SDS011;72834;40.104;18.336;2024-01-06T06:29:49;19.02;;;4.05;;
83018;SDS011;72834;40.104;18.336;2024-01-06T06:32:15;17.95;;;4.47;;
83018;SDS011;72834;40.104;18.336;2024-01-06T06:34:42;19.35;;;4.38;;
83018;SDS011;72834;40.104;18.336;2024-01-06T06:37:08;13.30;;;3.92;;
83018;SDS011;72834;40.104;18.336;2024-01-06T06:39:35;19.55;;;5.05;;
83018;SDS011;72834;40.104;18.336;2024-01-06T06:42:02;15.88;;;3.90;;
83018;SDS011;72834;40.104;18.336;2024-01-06T06:44:29;14.40;;;3.88;;
83018;SDS011;72834;40.104;18.336;2024-01-06T06:46:55;17.52;;;4.35;;
83018;SDS011;72834;40.104;18.336;2024-01-06T06:49:22;12.52;;;3.17;;
83018;SDS011;72834;40.104;18.336;2024-01-06T06:51:49;16.77;;;3.20;;
83018;SDS011;72834;40.104;18.336;2024-01-06T06:54:15;18.60;;;4.18;;
83018;SDS011;72834;40.104;18.336;2024-01-06T06:56:42;19.75;;;3.45;;
83018;SDS011;72834;40.104;18.336;2024-01-06T06:59:08;13.38;;;3.65;;
83018;SDS011;72834;40.104;18.336;2024-01-06T07:01:35;18.67;;;4.95;;
83018;SDS011;72834;40.104;18.336;2024-01-06T07:04:02;19.92;;;4.22;;
83018;SDS011;72834;40.104;18.336;2024-01-06T07:06:29;18.02;;;4.53;;
83018;SDS011;72834;40.104;18.336;2024-01-06T07:08:56;24.17;;;4.57;;
83018;SDS011;72834;40.104;18.336;2024-01-06T07:11:22;25.70;;;4.35;;
83018;SDS011;72834;40.104;18.336;2024-01-06T07:13:52;17.40;;;4.70;;
83018;SDS011;72834;40.104;18.336;2024-01-06T07:16:19;18.05;;;4.85;;
83018;SDS011;72834;40.104;18.336;2024-01-06T07:18:45;18.42;;;4.97;;
83018;SDS011;72834;40.104;18.336;2024-01-06T07:21:12;26.40;;;6.15;;
83018;SDS011;72834;40.104;18.336;2024-01-06T07:23:38;24.13;;;6.55;;
83018;SDS011;72834;40.104;18.336;2024-01-06T07:26:05;16.73;;;4.28;;
83018;SDS011;72834;40.104;18.336;2024-01-06T07:28:32;16.02;;;4.80;;
83018;SDS011;72834;40.104;18.336;2024-01-06T07:30:58;18.45;;;4.70;;
83018;SDS011;72834;40.104;18.336;2024-01-06T07:33:26;42.30;;;14.85;;
83018;SDS011;72834;40.104;18.336;2024-01-06T07:35:52;20.83;;;6.82;;
83018;SDS011;72834;40.104;18.336;2024-01-06T07:38:19;17.02;;;6.63;;
83018;SDS011;72834;40.104;18.336;2024-01-06T07:40:45;18.38;;;4.57;;
83018;SDS011;72834;40.104;18.336;2024-01-06T07:43:11;22.77;;;4.80;;
83018;SDS011;72834;40.104;18.336;2024-01-06T07:45:38;31.95;;;5.00;;
83018;SDS011;72834;40.104;18.336;2024-01-06T07:48:05;13.88;;;5.05;;
83018;SDS011;72834;40.104;18.336;2024-01-06T07:50:31;17.30;;;4.28;;
83018;SDS011;72834;40.104;18.336;2024-01-06T07:52:57;20.80;;;5.68;;
83018;SDS011;72834;40.104;18.336;2024-01-06T07:55:24;16.58;;;5.18;;
83018;SDS011;72834;40.104;18.336;2024-01-06T07:57:54;31.83;;;8.82;;
83018;SDS011;72834;40.104;18.336;2024-01-06T08:00:20;13.65;;;4.00;;
83018;SDS011;72834;40.104;18.336;2024-01-06T08:02:47;19.52;;;5.40;;
83018;SDS011;72834;40.104;18.336;2024-01-06T08:05:13;22.35;;;5.18;;
83018;SDS011;72834;40.104;18.336;2024-01-06T08:07:40;17.42;;;5.45;;
83018;SDS011;72834;40.104;18.336;2024-01-06T08:10:06;15.93;;;4.60;;
83018;SDS011;72834;40.104;18.336;2024-01-06T08:12:34;16.55;;;4.00;;
83018;SDS011;72834;40.104;18.336;2024-01-06T08:15:01;23.10;;;4.40;;
83018;SDS011;72834;40.104;18.336;2024-01-06T08:17:27;26.35;;;5.43;;
83018;SDS011;72834;40.104;18.336;2024-01-06T08:19:53;20.98;;;4.75;;
83018;SDS011;72834;40.104;18.336;2024-01-06T08:22:19;26.70;;;6.57;;
83018;SDS011;72834;40.104;18.336;2024-01-06T08:24:46;22.60;;;5.40;;
83018;SDS011;72834;40.104;18.336;2024-01-06T08:27:12;28.15;;;5.35;;
83018;SDS011;72834;40.104;18.336;2024-01-06T08:29:38;24.05;;;4.78;;
83018;SDS011;72834;40.104;18.336;2024-01-06T08:32:05;14.60;;;4.88;;
83018;SDS011;72834;40.104;18.336;2024-01-06T08:34:31;21.08;;;7.07;;
83018;SDS011;72834;40.104;18.336;2024-01-06T08:36:58;28.63;;;6.95;;
83018;SDS011;72834;40.104;18.336;2024-01-06T08:39:24;20.23;;;4.78;;
83018;SDS011;72834;40.104;18.336;2024-01-06T08:41:51;26.92;;;5.55;;
83018;SDS011;72834;40.104;18.336;2024-01-06T08:44:17;25.67;;;6.53;;
83018;SDS011;72834;40.104;18.336;2024-01-06T08:46:43;23.52;;;7.72;;
83018;SDS011;72834;40.104;18.336;2024-01-06T08:49:09;21.88;;;6.60;;
83018;SDS011;72834;40.104;18.336;2024-01-06T08:51:36;18.70;;;5.95;;
83018;SDS011;72834;40.104;18.336;2024-01-06T08:54:02;27.33;;;7.45;;
83018;SDS011;72834;40.104;18.336;2024-01-06T08:56:30;24.85;;;7.38;;
83018;SDS011;72834;40.104;18.336;2024-01-06T08:58:57;29.02;;;9.48;;
83018;SDS011;72834;40.104;18.336;2024-01-06T09:01:24;25.85;;;5.20;;
83018;SDS011;72834;40.104;18.336;2024-01-06T09:03:51;12.27;;;3.55;;
83018;SDS011;72834;40.104;18.336;2024-01-06T09:06:17;18.48;;;6.15;;
83018;SDS011;72834;40.104;18.336;2024-01-06T09:08:43;16.42;;;4.45;;
83018;SDS011;72834;40.104;18.336;2024-01-06T09:11:09;22.13;;;4.05;;
83018;SDS011;72834;40.104;18.336;2024-01-06T09:13:36;15.07;;;4.03;;
83018;SDS011;72834;40.104;18.336;2024-01-06T09:16:02;18.58;;;5.03;;
83018;SDS011;72834;40.104;18.336;2024-01-06T09:18:28;18.75;;;6.15;;
83018;SDS011;72834;40.104;18.336;2024-01-06T09:20:55;16.13;;;4.45;;
83018;SDS011;72834;40.104;18.336;2024-01-06T09:23:22;20.23;;;4.03;;
83018;SDS011;72834;40.104;18.336;2024-01-06T09:25:49;23.50;;;4.47;;
83018;SDS011;72834;40.104;18.336;2024-01-06T09:28:17;19.35;;;5.15;;
83018;SDS011;72834;40.104;18.336;2024-01-06T09:30:44;29.35;;;6.00;;
83018;SDS011;72834;40.104;18.336;2024-01-06T09:33:10;23.75;;;5.70;;
83018;SDS011;72834;40.104;18.336;2024-01-06T09:35:41;18.40;;;4.95;;
83018;SDS011;72834;40.104;18.336;2024-01-06T09:38:08;21.23;;;5.10;;
83018;SDS011;72834;40.104;18.336;2024-01-06T09:40:34;24.05;;;4.90;;
83018;SDS011;72834;40.104;18.336;2024-01-06T09:43:04;19.60;;;4.93;;
83018;SDS011;72834;40.104;18.336;2024-01-06T09:45:30;20.60;;;5.53;;
83018;SDS011;72834;40.104;18.336;2024-01-06T09:47:56;20.05;;;5.22;;
83018;SDS011;72834;40.104;18.336;2024-01-06T09:50:24;22.17;;;4.65;;
83018;SDS011;72834;40.104;18.336;2024-01-06T09:52:51;19.88;;;5.88;;
83018;SDS011;72834;40.104;18.336;2024-01-06T09:55:24;20.17;;;4.00;;
83018;SDS011;72834;40.104;18.336;2024-01-06T09:57:54;20.63;;;4.95;;
83018;SDS011;72834;40.104;18.336;2024-01-06T10:00:21;20.70;;;5.57;;
83018;SDS011;72834;40.104;18.336;2024-01-06T10:02:48;28.42;;;4.93;;
83018;SDS011;72834;40.104;18.336;2024-01-06T10:05:15;19.45;;;4.15;;
83018;SDS011;72834;40.104;18.336;2024-01-06T10:07:43;25.05;;;4.28;;
83018;SDS011;72834;40.104;18.336;2024-01-06T10:10:10;18.45;;;4.57;;
83018;SDS011;72834;40.104;18.336;2024-01-06T10:12:40;22.40;;;5.28;;
83018;SDS011;72834;40.104;18.336;2024-01-06T10:15:08;24.98;;;4.32;;
83018;SDS011;72834;40.104;18.336;2024-01-06T10:17:41;27.08;;;4.60;;
83018;SDS011;72834;40.104;18.336;2024-01-06T10:20:08;20.33;;;5.40;;
83018;SDS011;72834;40.104;18.336;2024-01-06T10:22:36;36.03;;;11.05;;
83018;SDS011;72834;40.104;18.336;2024-01-06T10:25:06;54.22;;;21.40;;
83018;SDS011;72834;40.104;18.336;2024-01-06T10:27:38;25.33;;;8.18;;
83018;SDS011;72834;40.104;18.336;2024-01-06T10:30:06;28.38;;;9.68;;
83018;SDS011;72834;40.104;18.336;2024-01-06T10:32:33;26.60;;;7.10;;
83018;SDS011;72834;40.104;18.336;2024-01-06T10:35:02;17.02;;;6.15;;
83018;SDS011;72834;40.104;18.336;2024-01-06T10:37:29;17.98;;;5.80;;
83018;SDS011;72834;40.104;18.336;2024-01-06T10:40:09;21.25;;;4.95;;
83018;SDS011;72834;40.104;18.336;2024-01-06T10:42:36;32.80;;;7.70;;
83018;SDS011;72834;40.104;18.336;2024-01-06T10:45:08;21.20;;;6.30;;
83018;SDS011;72834;40.104;18.336;2024-01-06T10:47:38;22.23;;;5.63;;
83018;SDS011;72834;40.104;18.336;2024-01-06T10:50:09;24.63;;;5.70;;
83018;SDS011;72834;40.104;18.336;2024-01-06T10:52:37;22.05;;;6.68;;
83018;SDS011;72834;40.104;18.336;2024-01-06T10:55:04;20.92;;;4.82;;
83018;SDS011;72834;40.104;18.336;2024-01-06T10:57:31;28.15;;;6.07;;
83018;SDS011;72834;40.104;18.336;2024-01-06T10:59:59;45.95;;;14.63;;
83018;SDS011;72834;40.104;18.336;2024-01-06T11:02:26;21.65;;;6.07;;
83018;SDS011;72834;40.104;18.336;2024-01-06T11:04:53;27.08;;;5.35;;
83018;SDS011;72834;40.104;18.336;2024-01-06T11:07:20;20.83;;;5.20;;
83018;SDS011;72834;40.104;18.336;2024-01-06T11:12:25;20.83;;;5.85;;
83018;SDS011;72834;40.104;18.336;2024-01-06T11:14:54;20.33;;;5.05;;
83018;SDS011;72834;40.104;18.336;2024-01-06T11:20:21;22.42;;;6.20;;
83018;SDS011;72834;40.104;18.336;2024-01-06T11:22:48;26.67;;;4.68;;
83018;SDS011;72834;40.104;18.336;2024-01-06T11:25:16;22.30;;;5.22;;
83018;SDS011;72834;40.104;18.336;2024-01-06T11:27:46;23.63;;;4.88;;
83018;SDS011;72834;40.104;18.336;2024-01-06T11:30:24;23.35;;;8.30;;
83018;SDS011;72834;40.104;18.336;2024-01-06T11:32:52;12.98;;;4.75;;
83018;SDS011;72834;40.104;18.336;2024-01-06T11:35:20;20.25;;;6.63;;
83018;SDS011;72834;40.104;18.336;2024-01-06T11:43:02;22.27;;;5.78;;
83018;SDS011;72834;40.104;18.336;2024-01-06T11:45:36;27.23;;;5.80;;
83018;SDS011;72834;40.104;18.336;2024-01-06T11:48:05;25.27;;;6.35;;
83018;SDS011;72834;40.104;18.336;2024-01-06T11:50:33;20.55;;;7.15;;
83018;SDS011;72834;40.104;18.336;2024-01-06T11:53:03;19.27;;;4.68;;
83018;SDS011;72834;40.104;18.336;2024-01-06T11:55:31;23.67;;;7.05;;
83018;SDS011;72834;40.104;18.336;2024-01-06T11:57:58;25.23;;;4.57;;
83018;SDS011;72834;40.104;18.336;2024-01-06T12:00:28;26.08;;;5.75;;
83018;SDS011;72834;40.104;18.336;2024-01-06T12:02:56;33.03;;;6.70;;
83018;SDS011;72834;40.104;18.336;2024-01-06T12:05:22;28.33;;;5.70;;
83018;SDS011;72834;40.104;18.336;2024-01-06T12:07:54;27.20;;;6.10;;
83018;SDS011;72834;40.104;18.336;2024-01-06T12:10:22;28.75;;;6.18;;
83018;SDS011;72834;40.104;18.336;2024-01-06T12:13:01;20.42;;;5.85;;
83018;SDS011;72834;40.104;18.336;2024-01-06T12:15:29;24.88;;;5.85;;
83018;SDS011;72834;40.104;18.336;2024-01-06T12:17:57;25.63;;;5.80;;
83018;SDS011;72834;40.104;18.336;2024-01-06T12:20:24;25.83;;;7.07;;
83018;SDS011;72834;40.104;18.336;2024-01-06T12:22:52;25.88;;;7.32;;
83018;SDS011;72834;40.104;18.336;2024-01-06T12:25:22;22.70;;;7.07;;
83018;SDS011;72834;40.104;18.336;2024-01-06T12:27:49;26.02;;;6.47;;
83018;SDS011;72834;40.104;18.336;2024-01-06T12:30:16;18.80;;;5.07;;
83018;SDS011;72834;40.104;18.336;2024-01-06T12:32:44;23.98;;;7.00;;
83018;SDS011;72834;40.104;18.336;2024-01-06T12:35:12;21.42;;;6.70;;
83018;SDS011;72834;40.104;18.336;2024-01-06T12:37:43;25.10;;;7.20;;
83018;SDS011;72834;40.104;18.336;2024-01-06T12:40:14;23.00;;;6.20;;
83018;SDS011;72834;40.104;18.336;2024-01-06T12:42:44;33.15;;;6.53;;
83018;SDS011;72834;40.104;18.336;2024-01-06T12:45:11;23.08;;;7.22;;
83018;SDS011;72834;40.104;18.336;2024-01-06T12:47:38;26.45;;;7.13;;
83018;SDS011;72834;40.104;18.336;2024-01-06T12:50:05;26.52;;;6.65;;
83018;SDS011;72834;40.104;18.336;2024-01-06T12:52:32;28.67;;;7.20;;
83018;SDS011;72834;40.104;18.336;2024-01-06T12:54:59;26.17;;;7.72;;
83018;SDS011;72834;40.104;18.336;2024-01-06T12:57:25;26.77;;;7.45;;
83018;SDS011;72834;40.104;18.336;2024-01-06T12:59:52;26.15;;;5.63;;
83018;SDS011;72834;40.104;18.336;2024-01-06T13:02:20;29.40;;;6.40;;
83018;SDS011;72834;40.104;18.336;2024-01-06T13:04:46;28.45;;;6.32;;
83018;SDS011;72834;40.104;18.336;2024-01-06T13:07:12;24.70;;;6.88;;
83018;SDS011;72834;40.104;18.336;2024-01-06T13:09:39;22.83;;;4.97;;
83018;SDS011;72834;40.104;18.336;2024-01-06T13:12:05;24.25;;;5.57;;
83018;SDS011;72834;40.104;18.336;2024-01-06T13:14:34;32.90;;;4.88;;
83018;SDS011;72834;40.104;18.336;2024-01-06T13:17:01;26.85;;;5.70;;
83018;SDS011;72834;40.104;18.336;2024-01-06T13:19:28;22.08;;;6.28;;
83018;SDS011;72834;40.104;18.336;2024-01-06T13:21:55;29.38;;;5.68;;
83018;SDS011;72834;40.104;18.336;2024-01-06T13:24:21;22.20;;;6.07;;
83018;SDS011;72834;40.104;18.336;2024-01-06T13:26:49;21.10;;;7.40;;
83018;SDS011;72834;40.104;18.336;2024-01-06T13:29:15;37.00;;;7.60;;
83018;SDS011;72834;40.104;18.336;2024-01-06T13:31:43;22.52;;;6.00;;
83018;SDS011;72834;40.104;18.336;2024-01-06T13:34:09;41.13;;;6.68;;
83018;SDS011;72834;40.104;18.336;2024-01-06T13:36:36;21.55;;;5.85;;
83018;SDS011;72834;40.104;18.336;2024-01-06T13:39:02;25.85;;;5.65;;
83018;SDS011;72834;40.104;18.336;2024-01-06T13:41:30;25.25;;;5.90;;
83018;SDS011;72834;40.104;18.336;2024-01-06T13:43:57;26.83;;;6.72;;
83018;SDS011;72834;40.104;18.336;2024-01-06T13:46:24;26.65;;;6.85;;
83018;SDS011;72834;40.104;18.336;2024-01-06T13:48:50;24.42;;;5.60;;
83018;SDS011;72834;40.104;18.336;2024-01-06T13:51:17;26.35;;;5.93;;
83018;SDS011;72834;40.104;18.336;2024-01-06T13:53:43;24.58;;;7.07;;
83018;SDS011;72834;40.104;18.336;2024-01-06T13:56:09;24.30;;;5.22;;
83018;SDS011;72834;40.104;18.336;2024-01-06T13:58:36;30.25;;;6.43;;
83018;SDS011;72834;40.104;18.336;2024-01-06T14:01:04;26.67;;;5.18;;
83018;SDS011;72834;40.104;18.336;2024-01-06T14:03:30;21.08;;;5.10;;
83018;SDS011;72834;40.104;18.336;2024-01-06T14:05:58;30.13;;;6.97;;
83018;SDS011;72834;40.104;18.336;2024-01-06T14:08:25;21.77;;;5.57;;
83018;SDS011;72834;40.104;18.336;2024-01-06T14:10:51;22.70;;;5.38;;
83018;SDS011;72834;40.104;18.336;2024-01-06T14:13:17;23.30;;;6.38;;
83018;SDS011;72834;40.104;18.336;2024-01-06T14:15:43;26.65;;;5.97;;
83018;SDS011;72834;40.104;18.336;2024-01-06T14:18:10;29.10;;;5.95;;
83018;SDS011;72834;40.104;18.336;2024-01-06T14:20:37;25.17;;;6.20;;
83018;SDS011;72834;40.104;18.336;2024-01-06T14:23:06;23.30;;;5.88;;
83018;SDS011;72834;40.104;18.336;2024-01-06T14:25:32;29.75;;;5.85;;
83018;SDS011;72834;40.104;18.336;2024-01-06T14:27:59;27.13;;;5.63;;
83018;SDS011;72834;40.104;18.336;2024-01-06T14:30:26;23.95;;;5.82;;
83018;SDS011;72834;40.104;18.336;2024-01-06T14:32:54;28.33;;;7.18;;